Terminal Aerodrome Forecast
Issued by NWS Central Illinois

Home | Current Version | Previous Version | Text Only | Print | Product List | Glossary On
Versions: 1 2 3 4 5 6 7 8 9 10 11 12 13 14 15 16 17 18
000
FTUS43 KILX 270520
TAFPIA
TAF
KPIA 270520Z 2706/2806 VRB03KT P6SM SCT250
     FM271000 33008KT P6SM SCT250
     FM271800 26012G20KT P6SM SCT250
     FM272300 28013G21KT P6SM BKN090
     FM280200 32009KT P6SM SCT090=

USA.gov is the U.S. government's official web portal to all federal, state and local government web resources and services.